Time;durP1;ratioP1;P1;durP2;ratioP2;P2;SDS_P1;SDS_P2;PMS_P1;PMS_P2;Temp;Humidity;BMP_temperature;BMP_pressure;BME280_temperature;BME280_humidity;BME280_pressure;Samples;Min_cycle;Max_cycle;Signal;HPM_P1;HPM_P2
2023/08/24 00:02:02;;;;;;;19.15;15.43;;;;;;;21.06;72.25;97672.69;10344802;28;20134;-55
2023/08/24 00:07:02;;;;;;;18.20;14.80;;;;;;;21.18;71.92;97688.91;10346681;28;20025;-55
2023/08/24 00:12:01;;;;;;;18.30;16.13;;;;;;;21.21;72.03;97688.78;10347528;28;20148;-55
2023/08/24 00:17:00;;;;;;;21.70;16.48;;;;;;;21.17;71.70;97688.03;10347167;28;20663;-55
2023/08/24 00:21:58;;;;;;;17.88;15.27;;;;;;;21.12;72.09;97685.63;10346221;28;20148;-55
2023/08/24 00:26:57;;;;;;;18.65;15.50;;;;;;;21.14;72.45;97689.03;10345649;28;20204;-55
2023/08/24 00:31:57;;;;;;;18.73;15.40;;;;;;;21.13;72.48;97684.69;10344486;28;20040;-55
2023/08/24 00:36:56;;;;;;;19.13;15.38;;;;;;;21.12;72.63;97676.81;10345459;28;20077;-55
2023/08/24 00:41:55;;;;;;;20.52;16.17;;;;;;;20.99;73.26;97665.97;10347676;28;20416;-55
2023/08/24 00:46:54;;;;;;;19.27;16.65;;;;;;;20.73;73.99;97656.59;10344483;28;20037;-55
2023/08/24 00:51:53;;;;;;;20.23;16.98;;;;;;;20.31;75.46;97653.97;10349105;28;20085;-55
2023/08/24 00:56:53;;;;;;;21.00;16.60;;;;;;;20.42;75.77;97694.81;10345323;28;20065;-55
2023/08/24 01:01:52;;;;;;;20.25;17.17;;;;;;;20.41;75.52;97687.78;10348724;28;20092;-53
2023/08/24 01:06:52;;;;;;;23.50;17.27;;;;;;;20.33;75.34;97668.78;10348998;28;20065;-53
2023/08/24 01:12:00;;;;;;;21.50;16.50;;;;;;;20.40;75.95;97685.22;10351757;28;20053;-55
2023/08/24 01:17:02;;;;;;;20.63;16.67;;;;;;;20.31;76.12;97672.41;10352321;28;20068;-55
2023/08/24 01:22:02;;;;;;;17.80;15.93;;;;;;;20.42;75.93;97683.38;10350533;28;20072;-55
2023/08/24 01:27:01;;;;;;;20.77;16.48;;;;;;;20.44;75.91;97686.81;10351737;28;20071;-55
2023/08/24 01:32:00;;;;;;;24.00;17.55;;;;;;;20.47;75.64;97681.44;10352084;28;20063;-55
2023/08/24 01:36:59;;;;;;;18.65;16.52;;;;;;;20.41;75.94;97668.50;10353207;28;20029;-55
2023/08/24 01:42:02;;;;;;;20.75;17.00;;;;;;;20.53;76.15;97675.03;10351300;28;20444;-55
2023/08/24 01:47:05;;;;;;;24.67;17.42;;;;;;;19.22;76.93;97478.41;10350721;28;20057;-55
2023/08/24 01:52:04;;;;;;;19.25;16.55;;;;;;;20.21;78.03;97680.69;10352731;28;20060;-55
2023/08/24 01:57:06;;;;;;;19.70;16.60;;;;;;;20.29;77.37;97673.31;10353268;28;20515;-55
2023/08/24 02:02:05;;;;;;;19.35;16.35;;;;;;;20.34;77.13;97677.56;10350753;28;20105;-55
2023/08/24 02:07:04;;;;;;;20.77;17.45;;;;;;;20.13;76.84;97637.13;10350680;28;20504;-56
2023/08/24 02:12:04;;;;;;;20.80;17.60;;;;;;;20.34;76.85;97661.75;10348449;28;20028;-55
2023/08/24 02:17:03;;;;;;;21.48;16.95;;;;;;;20.34;76.97;97664.38;10350300;28;20052;-55
2023/08/24 02:22:02;;;;;;;22.23;16.88;;;;;;;20.38;76.76;97687.91;10350301;28;20063;-53
2023/08/24 02:27:01;;;;;;;23.60;17.60;;;;;;;19.52;77.72;97543.03;10348999;28;20091;-55
2023/08/24 02:32:00;;;;;;;23.40;17.90;;;;;;;20.11;78.12;97666.16;10349270;28;20025;-55
2023/08/24 02:36:59;;;;;;;24.60;17.48;;;;;;;19.95;78.59;97670.34;10349800;28;20061;-55
2023/08/24 02:41:58;;;;;;;21.88;17.10;;;;;;;19.98;78.42;97672.88;10349157;28;20073;-55
2023/08/24 02:46:57;;;;;;;20.77;18.38;;;;;;;20.02;78.04;97670.03;10347546;28;20033;-55
2023/08/24 02:51:56;;;;;;;21.52;17.73;;;;;;;19.99;78.50;97678.06;10348575;28;20049;-56
2023/08/24 02:56:55;;;;;;;21.63;16.60;;;;;;;20.07;78.07;97683.91;10346667;28;20108;-55
2023/08/24 03:01:54;;;;;;;22.92;16.50;;;;;;;20.00;78.02;97677.16;10350770;28;20125;-55
2023/08/24 03:06:53;;;;;;;21.67;16.60;;;;;;;19.69;77.96;97629.25;10350034;28;20026;-55
2023/08/24 03:11:52;;;;;;;20.23;17.45;;;;;;;19.84;78.62;97697.13;10348052;28;20025;-55
2023/08/24 03:16:51;;;;;;;21.75;16.85;;;;;;;19.73;78.79;97694.03;10349565;28;20407;-55
2023/08/24 03:21:50;;;;;;;22.38;17.35;;;;;;;19.77;78.49;97701.78;10349010;28;20037;-55
2023/08/24 03:26:49;;;;;;;25.10;16.73;;;;;;;19.74;78.73;97707.13;10348790;28;20017;-55
2023/08/24 03:31:48;;;;;;;22.42;17.42;;;;;;;19.47;78.82;97680.06;10347871;28;20047;-55
2023/08/24 03:36:50;;;;;;;21.48;17.75;;;;;;;19.38;78.69;97662.84;10346155;28;20064;-56
2023/08/24 03:41:49;;;;;;;22.25;17.88;;;;;;;19.76;78.89;97717.63;10346989;28;20057;-53
2023/08/24 03:46:48;;;;;;;21.25;18.15;;;;;;;19.77;78.59;97714.94;10347633;28;20112;-55
2023/08/24 03:51:47;;;;;;;20.73;17.90;;;;;;;19.79;78.70;97710.47;10348445;28;20056;-55
2023/08/24 03:56:46;;;;;;;32.45;18.95;;;;;;;19.76;78.82;97705.31;10348098;28;20064;-55
2023/08/24 04:01:45;;;;;;;24.65;18.30;;;;;;;19.83;78.85;97709.41;10347686;28;20021;-55
2023/08/24 04:06:44;;;;;;;26.48;18.70;;;;;;;19.70;79.09;97679.22;10346805;28;20033;-55
2023/08/24 04:11:43;;;;;;;30.92;19.40;;;;;;;19.91;79.05;97706.50;10346439;28;20107;-55
2023/08/24 04:16:42;;;;;;;25.90;18.65;;;;;;;19.80;79.70;97713.97;10346381;28;20064;-55
2023/08/24 04:21:41;;;;;;;23.60;19.27;;;;;;;19.73;79.64;97717.75;10345521;28;20025;-55
2023/08/24 04:26:40;;;;;;;26.20;20.25;;;;;;;19.77;79.56;97714.94;10349055;28;20488;-55
2023/08/24 04:31:41;;;;;;;25.88;19.20;;;;;;;19.75;79.43;97711.50;10346555;28;20486;-56
2023/08/24 04:36:40;;;;;;;29.67;19.75;;;;;;;19.64;78.68;97659.25;10336833;28;20068;-55
2023/08/24 04:41:39;;;;;;;29.83;18.98;;;;;;;20.06;78.83;97723.47;10353688;28;20032;-56
2023/08/24 04:46:38;;;;;;;24.42;18.55;;;;;;;20.16;78.37;97724.78;10355349;28;20099;-55
2023/08/24 04:51:38;;;;;;;27.88;19.55;;;;;;;20.22;78.00;97703.47;10329263;28;20040;-55
2023/08/24 04:56:37;;;;;;;29.75;19.35;;;;;;;20.49;77.40;97724.38;10335183;28;20137;-55
2023/08/24 05:01:36;;;;;;;123.97;31.75;;;;;;;20.32;77.33;97734.72;10332167;28;20045;-55
2023/08/24 05:06:35;;;;;;;80.80;23.30;;;;;;;20.18;77.55;97716.84;10331061;28;20469;-55
2023/08/24 05:11:34;;;;;;;32.25;19.25;;;;;;;20.44;77.53;97736.88;10327965;28;20493;-56
2023/08/24 05:16:33;;;;;;;32.15;20.40;;;;;;;20.50;77.40;97718.19;10333860;28;20040;-56
2023/08/24 05:21:32;;;;;;;30.15;19.67;;;;;;;20.93;76.96;97740.94;10333989;28;20048;-55
2023/08/24 05:26:31;;;;;;;25.25;19.17;;;;;;;20.88;75.45;97697.25;10333272;28;20034;-55
2023/08/24 05:31:30;;;;;;;23.20;19.05;;;;;;;21.38;75.33;97751.38;10334154;28;20036;-55
2023/08/24 05:36:29;;;;;;;27.33;19.05;;;;;;;21.26;73.60;97715.81;10335380;28;20076;-55
2023/08/24 05:41:28;;;;;;;23.52;18.55;;;;;;;21.62;73.97;97754.72;10334707;28;20120;-56
2023/08/24 05:46:28;;;;;;;24.48;19.13;;;;;;;21.88;73.05;97757.00;10332480;28;20045;-55
2023/08/24 05:51:27;;;;;;;22.67;19.17;;;;;;;21.91;72.47;97753.34;10330605;28;20163;-55
2023/08/24 05:56:26;;;;;;;23.50;19.35;;;;;;;21.91;72.42;97764.78;10327394;28;20060;-56
2023/08/24 06:01:25;;;;;;;20.67;17.80;;;;;;;22.03;71.79;97757.25;10325593;28;20583;-56
2023/08/24 06:06:24;;;;;;;21.65;17.58;;;;;;;22.22;71.92;97771.28;10327391;28;20072;-56
2023/08/24 06:11:23;;;;;;;27.58;19.13;;;;;;;22.44;69.61;97762.34;10327685;28;20037;-56
2023/08/24 06:16:22;;;;;;;25.27;18.45;;;;;;;22.52;70.32;97757.50;10326752;28;20025;-56
2023/08/24 06:21:21;;;;;;;20.92;17.50;;;;;;;22.54;70.04;97711.53;10327247;28;20029;-56
2023/08/24 06:26:20;;;;;;;24.40;17.75;;;;;;;22.94;70.09;97751.03;10327533;28;20748;-56
2023/08/24 06:31:19;;;;;;;41.28;22.17;;;;;;;23.12;69.10;97754.53;10325449;28;20033;-55
2023/08/24 06:36:18;;;;;;;33.97;21.85;;;;;;;22.72;70.88;97749.44;10325270;28;20125;-56
2023/08/24 06:41:17;;;;;;;35.60;22.55;;;;;;;22.98;70.34;97758.75;10325073;28;20029;-56
2023/08/24 06:46:16;;;;;;;27.98;19.13;;;;;;;23.09;68.47;97759.97;10324754;28;20041;-56
2023/08/24 06:51:16;;;;;;;27.95;18.52;;;;;;;22.85;67.24;97709.16;10324505;28;20033;-55
2023/08/24 06:56:15;;;;;;;29.45;18.60;;;;;;;23.37;67.08;97752.31;10326832;28;20123;-56
2023/08/24 07:01:14;;;;;;;25.23;18.27;;;;;;;23.69;66.29;97756.84;10326399;28;20124;-56
2023/08/24 07:06:13;;;;;;;31.60;17.60;;;;;;;23.82;64.69;97731.41;10324604;28;20076;-56
2023/08/24 07:11:14;;;;;;;24.85;18.08;;;;;;;24.18;63.14;97749.72;10325233;28;20104;-56
2023/08/24 07:16:13;;;;;;;24.85;18.08;;;;;;;24.46;62.03;97750.81;10323003;28;20113;-56
2023/08/24 07:21:14;;;;;;;25.30;17.55;;;;;;;24.75;59.83;97740.28;10317028;28;20045;-56
2023/08/24 07:26:13;;;;;;;20.88;17.27;;;;;;;24.99;58.35;97738.00;10324093;28;20053;-56
2023/08/24 07:31:12;;;;;;;20.95;15.85;;;;;;;25.31;58.17;97734.25;10323704;28;20099;-56
2023/08/24 07:36:11;;;;;;;27.38;16.90;;;;;;;25.72;57.61;97725.56;10321686;28;20072;-56
2023/08/24 07:41:11;;;;;;;24.52;15.85;;;;;;;25.94;55.16;97710.91;10323421;28;20455;-56
2023/08/24 07:46:10;;;;;;;24.35;15.57;;;;;;;26.41;53.75;97717.63;10322442;28;20085;-56
2023/08/24 07:51:09;;;;;;;18.35;14.85;;;;;;;26.72;53.18;97718.25;10322218;28;20026;-56
2023/08/24 07:56:08;;;;;;;21.23;14.75;;;;;;;26.97;52.49;97715.66;10318885;28;20553;-56
2023/08/24 08:01:07;;;;;;;23.80;15.75;;;;;;;27.23;50.68;97707.69;10321126;28;20037;-57
2023/08/24 08:06:06;;;;;;;19.40;14.13;;;;;;;27.20;49.57;97649.28;10321270;28;20124;-57
2023/08/24 08:11:05;;;;;;;20.80;14.50;;;;;;;27.69;48.50;97687.63;10320662;28;20036;-56
2023/08/24 08:16:06;;;;;;;20.02;14.98;;;;;;;28.14;48.60;97702.13;10326711;28;20029;-56
2023/08/24 08:21:15;;;;;;;20.50;14.95;;;;;;;28.59;48.00;97698.81;10328106;28;20125;-56
2023/08/24 08:26:14;;;;;;;19.70;14.20;;;;;;;28.66;46.92;97658.19;10329562;28;20060;-56
2023/08/24 08:31:13;;;;;;;16.25;13.98;;;;;;;29.26;45.00;97692.84;10332816;28;20060;-56
2023/08/24 08:36:12;;;;;;;20.20;15.70;;;;;;;29.27;44.55;97654.44;10333506;28;20065;-56
2023/08/24 08:41:13;;;;;;;20.10;14.82;;;;;;;29.72;45.20;97686.53;10330274;28;20036;-56
2023/08/24 08:46:13;;;;;;;20.55;15.80;;;;;;;30.04;43.97;97678.56;10329752;28;20072;-56
2023/08/24 08:51:14;;;;;;;18.73;15.40;;;;;;;30.35;43.05;97673.34;10328841;28;20120;-56
2023/08/24 08:56:13;;;;;;;22.60;15.90;;;;;;;30.62;41.98;97672.06;10327557;28;20124;-56
2023/08/24 09:01:13;;;;;;;20.13;16.20;;;;;;;30.75;41.52;97665.56;10328113;28;20077;-57
2023/08/24 09:06:11;;;;;;;17.92;15.77;;;;;;;30.89;40.90;97652.78;10328612;28;20063;-56
2023/08/24 09:11:11;;;;;;;19.17;15.07;;;;;;;30.80;40.37;97600.03;10328552;28;20037;-55
2023/08/24 09:16:14;;;;;;;16.60;14.70;;;;;;;31.31;38.96;97639.34;10328250;28;20125;-55
2023/08/24 09:21:15;;;;;;;17.95;15.15;;;;;;;31.52;38.74;97624.09;10323311;28;20072;-55
2023/08/24 09:26:14;;;;;;;21.80;16.17;;;;;;;31.64;39.63;97607.88;10324142;28;20132;-55
2023/08/24 09:31:13;;;;;;;17.10;15.07;;;;;;;31.99;39.33;97620.78;10327507;28;20030;-55
2023/08/24 09:36:14;;;;;;;16.77;14.98;;;;;;;32.09;38.42;97594.00;10328326;28;20052;-55
2023/08/24 09:41:13;;;;;;;17.80;16.10;;;;;;;32.30;37.76;97602.75;10319573;28;20080;-55
2023/08/24 09:46:18;;;;;;;22.00;15.02;;;;;;;32.58;37.94;97597.53;10327343;28;20100;-55
2023/08/24 09:51:17;;;;;;;19.67;14.98;;;;;;;32.55;36.92;97605.84;10327410;28;20068;-55
2023/08/24 09:56:16;;;;;;;16.65;14.95;;;;;;;32.49;36.18;97584.94;10324828;28;20076;-55
2023/08/24 10:01:17;;;;;;;16.88;15.18;;;;;;;32.84;36.33;97587.84;10326434;28;20061;-55
2023/08/24 10:06:20;;;;;;;15.20;13.70;;;;;;;33.06;34.32;97578.56;10327729;28;20492;-55
2023/08/24 10:11:25;;;;;;;25.80;20.10;;;;;;;33.09;35.25;97521.03;10325020;28;20100;-55
2023/08/24 10:16:26;;;;;;;18.45;15.02;;;;;;;33.68;34.43;97529.59;10326853;28;20096;-55
2023/08/24 10:21:28;;;;;;;16.10;14.15;;;;;;;34.00;34.43;97542.50;10324655;28;20116;-55
2023/08/24 10:26:27;;;;;;;16.55;14.23;;;;;;;34.27;33.84;97505.75;10326326;28;20072;-55
2023/08/24 10:31:27;;;;;;;15.60;14.23;;;;;;;34.50;32.46;97517.69;10327334;28;20060;-56
2023/08/24 10:36:27;;;;;;;14.90;13.23;;;;;;;34.51;31.77;97492.44;10325860;28;20053;-56
2023/08/24 10:41:27;;;;;;;16.33;14.77;;;;;;;35.18;31.23;97532.28;10324717;28;20077;-55
2023/08/24 10:46:26;;;;;;;17.65;14.32;;;;;;;35.53;30.73;97533.06;10325687;28;20562;-55
2023/08/24 10:51:26;;;;;;;17.05;15.05;;;;;;;36.02;30.64;97541.28;10325457;28;20494;-57
2023/08/24 10:56:35;;;;;;;16.27;14.55;;;;;;;36.29;29.30;97518.50;10317688;28;20559;-56
2023/08/24 11:01:38;;;;;;;25.00;22.67;;;;;;;36.25;29.81;97516.28;10322384;28;20661;-55
2023/08/24 11:06:59;;;;;;;15.02;13.50;;;;;;;36.12;29.09;97549.25;10325390;28;20061;-55
2023/08/24 11:12:01;;;;;;;12.75;11.30;;;;;;;34.18;30.76;97557.84;10325278;28;20068;-55
2023/08/24 11:17:16;;;;;;;18.48;11.85;;;;;;;33.30;33.07;97563.78;10315727;28;20120;-55
2023/08/24 11:22:18;;;;;;;18.45;11.35;;;;;;;31.82;35.19;97576.69;10323881;28;20112;-57
2023/08/24 11:27:20;;;;;;;20.50;11.80;;;;;;;30.98;36.49;97586.88;10321821;28;20072;-55
2023/08/24 11:32:19;;;;;;;20.33;12.75;;;;;;;30.93;36.88;97579.19;10320451;28;20049;-55
2023/08/24 11:37:20;;;;;;;19.45;11.93;;;;;;;30.98;38.04;97566.28;10322129;28;20044;-56
2023/08/24 11:42:19;;;;;;;16.20;11.90;;;;;;;30.84;38.68;97570.13;10322655;28;20133;-55
2023/08/24 11:47:23;;;;;;;13.70;12.40;;;;;;;30.73;38.52;97546.97;10321276;28;20021;-55
2023/08/24 11:52:22;;;;;;;15.60;11.57;;;;;;;30.69;36.74;97545.53;10321823;28;20064;-55
2023/08/24 11:57:20;;;;;;;12.75;11.55;;;;;;;30.66;37.44;97505.63;10318697;28;20065;-55
2023/08/24 12:02:21;;;;;;;12.88;11.68;;;;;;;30.58;37.52;97475.97;10313802;28;20036;-56
2023/08/24 12:07:20;;;;;;;11.80;10.63;;;;;;;30.99;37.34;97522.44;10303127;28;20108;-56
2023/08/24 12:12:23;;;;;;;25.35;22.63;;;;;;;31.16;40.44;97532.50;10312592;28;20195;-56
2023/08/24 12:17:22;;;;;;;24.90;21.85;;;;;;;31.08;41.63;97535.03;10310442;28;20112;-56
2023/08/24 12:22:21;;;;;;;13.98;12.50;;;;;;;30.99;41.43;97543.03;10322648;28;20032;-56
2023/08/24 12:27:23;;;;;;;14.13;11.82;;;;;;;30.94;41.76;97527.31;10320596;28;20831;-56
2023/08/24 12:32:26;;;;;;;13.60;12.05;;;;;;;30.85;41.24;97501.34;10320273;28;20069;-55
2023/08/24 12:37:25;;;;;;;13.70;12.30;;;;;;;31.10;40.23;97522.34;10322675;28;20489;-55
2023/08/24 12:42:24;;;;;;;13.93;12.30;;;;;;;30.84;39.48;97507.66;10322388;28;20492;-56
2023/08/24 12:47:23;;;;;;;12.40;11.10;;;;;;;31.18;38.91;97518.97;10318005;28;20041;-56
2023/08/24 12:52:23;;;;;;;19.15;12.95;;;;;;;31.48;40.69;97535.97;10318513;28;20072;-56
2023/08/24 12:57:22;;;;;;;16.73;12.60;;;;;;;31.75;41.97;97521.91;10320033;28;20056;-57
2023/08/24 13:02:21;;;;;;;13.50;11.70;;;;;;;31.90;40.41;97528.56;10326220;28;20033;-56
2023/08/24 13:07:20;;;;;;;14.13;12.50;;;;;;;32.08;39.43;97525.19;10328960;28;20068;-56
2023/08/24 13:12:19;;;;;;;14.45;11.50;;;;;;;32.36;38.60;97521.59;10328415;28;20072;-56
2023/08/24 13:17:18;;;;;;;15.57;13.27;;;;;;;32.84;40.23;97509.06;10328787;28;20029;-56
2023/08/24 13:22:17;;;;;;;15.13;12.98;;;;;;;33.19;39.19;97494.91;10317961;28;20559;-56
2023/08/24 13:27:16;;;;;;;16.30;12.20;;;;;;;33.22;38.96;97483.00;10327912;28;20472;-56
2023/08/24 13:32:15;;;;;;;13.95;11.77;;;;;;;33.44;36.42;97517.56;10324877;28;20116;-57
2023/08/24 13:37:14;;;;;;;16.02;12.20;;;;;;;33.29;36.14;97507.47;10317821;28;20033;-56
2023/08/24 13:42:13;;;;;;;17.77;12.55;;;;;;;33.07;37.13;97536.41;10325258;28;20133;-56
2023/08/24 13:47:12;;;;;;;14.27;12.77;;;;;;;31.38;40.92;97451.00;10320428;28;20499;-56
2023/08/24 13:52:12;;;;;;;16.67;13.80;;;;;;;30.92;42.58;97526.59;10314139;28;20207;-56
2023/08/24 13:57:11;;;;;;;17.92;14.05;;;;;;;30.26;44.04;97506.34;10321855;28;20714;-56
2023/08/24 14:02:11;;;;;;;15.15;12.20;;;;;;;30.21;43.97;97521.97;10326815;28;20762;-56
2023/08/24 14:07:10;;;;;;;13.48;10.88;;;;;;;30.08;42.50;97518.63;10325571;28;20125;-56
2023/08/24 14:12:09;;;;;;;11.02;9.77;;;;;;;29.70;42.77;97523.50;10325959;28;20044;-56
2023/08/24 14:17:08;;;;;;;10.60;9.05;;;;;;;29.65;42.79;97503.47;10324913;28;20112;-56
2023/08/24 14:22:07;;;;;;;12.13;8.88;;;;;;;29.56;42.84;97485.50;10324576;28;20052;-56
2023/08/24 14:27:06;;;;;;;13.13;9.52;;;;;;;29.46;43.00;97422.09;10325301;28;20037;-56
2023/08/24 14:32:05;;;;;;;17.60;10.38;;;;;;;29.99;43.08;97477.44;10316361;28;20120;-56
2023/08/24 14:37:04;;;;;;;12.82;10.88;;;;;;;30.22;43.87;97494.22;10318719;28;20149;-56
2023/08/24 14:42:05;;;;;;;15.60;12.57;;;;;;;30.38;44.60;97515.16;10317632;28;20045;-56
2023/08/24 14:47:04;;;;;;;13.25;11.85;;;;;;;29.16;44.26;97318.59;10319481;28;20071;-56
2023/08/24 14:52:03;;;;;;;14.85;11.10;;;;;;;30.52;44.48;97514.84;10314974;28;20563;-56
2023/08/24 14:57:03;;;;;;;24.63;13.60;;;;;;;30.63;44.17;97524.66;10310610;28;20135;-56
2023/08/24 15:02:02;;;;;;;16.60;12.48;;;;;;;30.66;43.74;97524.38;10311371;28;20144;-56
2023/08/24 15:07:01;;;;;;;17.80;13.73;;;;;;;30.43;45.21;97544.25;10315038;28;20076;-56
2023/08/24 15:12:00;;;;;;;20.40;13.98;;;;;;;30.05;47.00;97518.88;10320795;28;20114;-56
2023/08/24 15:16:59;;;;;;;18.23;13.20;;;;;;;29.98;48.03;97544.47;10323822;28;20120;-56
2023/08/24 15:21:58;;;;;;;16.92;13.05;;;;;;;29.88;48.33;97522.97;10318057;28;20030;-56
2023/08/24 15:26:57;;;;;;;16.38;14.00;;;;;;;30.03;48.79;97510.97;10321571;28;20434;-56
2023/08/24 15:31:56;;;;;;;16.88;15.05;;;;;;;30.19;49.45;97505.19;10322448;28;20120;-56
2023/08/24 15:36:55;;;;;;;27.88;15.93;;;;;;;30.02;48.97;97470.97;10323831;28;20116;-56
2023/08/24 15:41:53;;;;;;;13.93;12.43;;;;;;;29.96;49.27;97508.97;10318524;28;20045;-56
2023/08/24 15:46:52;;;;;;;16.95;13.10;;;;;;;29.75;50.06;97531.13;10321161;28;20049;-56
2023/08/24 15:51:53;;;;;;;18.65;12.48;;;;;;;29.36;50.33;97549.47;10322423;28;20025;-56
2023/08/24 15:56:53;;;;;;;17.92;11.85;;;;;;;29.22;50.58;97547.03;10321198;28;20069;-56
2023/08/24 16:01:52;;;;;;;14.02;11.88;;;;;;;29.32;50.21;97569.41;10319187;28;21279;-56
2023/08/24 16:06:51;;;;;;;14.88;11.63;;;;;;;29.02;49.90;97522.75;10321936;28;20782;-56
2023/08/24 16:11:50;;;;;;;18.73;11.35;;;;;;;29.14;49.47;97565.50;10320081;28;20426;-56
2023/08/24 16:16:49;;;;;;;15.05;11.13;;;;;;;29.13;49.88;97569.97;10319041;28;20066;-56
2023/08/24 16:21:48;;;;;;;16.25;11.20;;;;;;;29.06;50.20;97569.66;10321295;28;20044;-56
2023/08/24 16:26:47;;;;;;;19.77;11.55;;;;;;;28.92;50.07;97545.81;10320845;28;20056;-56
2023/08/24 16:31:46;;;;;;;16.73;11.60;;;;;;;29.13;50.12;97566.47;10321601;28;20037;-56
2023/08/24 16:36:45;;;;;;;16.67;12.45;;;;;;;29.06;50.27;97561.63;10322835;28;20816;-56
2023/08/24 16:41:44;;;;;;;18.58;12.73;;;;;;;29.03;51.57;97569.03;10328333;28;20176;-56
2023/08/24 16:46:43;;;;;;;22.02;13.77;;;;;;;28.89;52.17;97570.13;10328006;28;20033;-56
2023/08/24 16:51:41;;;;;;;18.52;14.25;;;;;;;28.75;52.91;97581.03;10327989;28;20036;-56
2023/08/24 16:56:40;;;;;;;19.33;14.98;;;;;;;28.51;52.95;97573.06;10328102;28;20036;-55
2023/08/24 17:01:39;;;;;;;17.67;13.68;;;;;;;28.24;53.29;97567.06;10328950;28;20033;-55
2023/08/24 17:06:38;;;;;;;15.82;13.80;;;;;;;27.35;53.14;97451.03;10328489;28;20076;-55
2023/08/24 17:11:37;;;;;;;17.75;13.32;;;;;;;27.88;52.98;97559.97;10326671;28;20104;-56
2023/08/24 17:16:36;;;;;;;17.35;14.10;;;;;;;27.37;53.44;97507.69;10326954;28;20049;-55
2023/08/24 17:21:35;;;;;;;17.20;15.38;;;;;;;27.70;54.67;97578.19;10328365;28;20061;-55
2023/08/24 17:26:34;;;;;;;18.33;13.38;;;;;;;27.57;54.76;97567.59;10325917;28;20044;-55
2023/08/24 17:31:33;;;;;;;21.48;16.52;;;;;;;27.20;56.51;97548.06;10328630;28;20024;-55
2023/08/24 17:36:32;;;;;;;20.67;15.82;;;;;;;27.19;57.35;97567.69;10328324;28;20558;-55
2023/08/24 17:41:32;;;;;;;17.92;14.77;;;;;;;27.05;58.52;97584.63;10327563;28;20113;-55
2023/08/24 17:46:33;;;;;;;21.85;15.57;;;;;;;26.65;60.06;97565.22;10323660;28;20585;-55
2023/08/24 17:51:32;;;;;;;21.10;16.20;;;;;;;26.56;61.72;97594.19;10326691;28;20113;-55
2023/08/24 17:56:31;;;;;;;17.55;14.70;;;;;;;26.24;62.17;97585.75;10327075;28;20112;-55
2023/08/24 18:01:30;;;;;;;17.58;14.52;;;;;;;26.22;62.50;97600.09;10325297;28;20061;-55
2023/08/24 18:06:29;;;;;;;18.95;15.20;;;;;;;26.14;62.54;97609.41;10324288;28;20044;-55
2023/08/24 18:11:28;;;;;;;19.27;15.80;;;;;;;26.00;63.74;97612.13;10325902;28;20042;-55
2023/08/24 18:16:28;;;;;;;23.75;16.42;;;;;;;25.98;63.70;97605.22;10326473;28;20427;-55
2023/08/24 18:21:27;;;;;;;16.95;15.07;;;;;;;25.79;64.75;97608.25;10323840;28;20069;-55
2023/08/24 18:26:25;;;;;;;22.23;15.80;;;;;;;25.70;65.34;97621.16;10324376;28;20056;-57
2023/08/24 18:31:25;;;;;;;18.35;16.00;;;;;;;24.78;65.38;97485.34;10325616;28;20029;-55
2023/08/24 18:36:24;;;;;;;24.27;15.85;;;;;;;25.57;65.74;97628.19;10322303;28;20507;-55
2023/08/24 18:41:23;;;;;;;18.20;15.35;;;;;;;25.52;65.85;97636.44;10322143;28;20109;-55
2023/08/24 18:46:22;;;;;;;19.48;15.65;;;;;;;25.42;66.19;97642.44;10325617;28;20056;-54
2023/08/24 18:51:22;;;;;;;18.73;15.93;;;;;;;25.35;66.45;97651.75;10323780;28;20025;-55
2023/08/24 18:56:21;;;;;;;18.55;16.33;;;;;;;25.12;67.51;97632.78;10320219;28;20061;-54
2023/08/24 19:01:20;;;;;;;19.92;15.35;;;;;;;24.81;68.62;97628.47;10324120;28;20033;-54
2023/08/24 19:06:19;;;;;;;17.52;15.30;;;;;;;24.79;69.57;97660.41;10323288;28;20037;-54
2023/08/24 19:11:18;;;;;;;18.38;16.13;;;;;;;24.69;69.82;97660.09;10320191;28;20036;-54
2023/08/24 19:16:17;;;;;;;19.40;16.23;;;;;;;24.61;70.43;97658.84;10321609;28;20057;-55
2023/08/24 19:21:16;;;;;;;19.98;15.75;;;;;;;24.47;70.28;97668.50;10322645;28;20160;-54
2023/08/24 19:26:15;;;;;;;20.73;14.77;;;;;;;24.12;70.06;97619.25;10326849;28;20038;-54
2023/08/24 19:31:15;;;;;;;18.42;14.95;;;;;;;24.14;70.26;97633.28;10324176;28;20106;-54
2023/08/24 19:36:14;;;;;;;17.13;14.82;;;;;;;24.26;70.50;97670.59;10322901;28;20459;-54
2023/08/24 19:41:13;;;;;;;21.98;15.45;;;;;;;23.97;70.57;97621.03;10323345;28;20061;-54
2023/08/24 19:46:12;;;;;;;20.92;15.18;;;;;;;24.08;70.16;97654.88;10319842;28;20045;-54
2023/08/24 19:51:11;;;;;;;20.55;15.77;;;;;;;24.16;70.37;97676.47;10322701;28;20697;-54
2023/08/24 19:56:10;;;;;;;18.33;15.15;;;;;;;24.09;70.77;97667.16;10321967;28;20460;-55
2023/08/24 20:01:09;;;;;;;19.63;15.27;;;;;;;24.03;70.92;97674.53;10323752;28;20112;-54
2023/08/24 20:06:19;;;;;;;17.27;14.63;;;;;;;23.92;70.99;97661.03;10319995;28;20048;-56
2023/08/24 20:11:19;;;;;;;16.05;13.13;;;;;;;23.91;70.76;97667.28;10327471;28;20108;-53
2023/08/24 20:16:18;;;;;;;15.85;14.18;;;;;;;23.83;70.36;97657.09;10319875;28;20148;-56
2023/08/24 20:21:17;;;;;;;14.02;12.20;;;;;;;23.78;70.52;97653.00;10323959;28;20040;-56
2023/08/24 20:26:16;;;;;;;16.95;15.25;;;;;;;23.70;71.65;97668.47;10328995;28;20033;-54
2023/08/24 20:31:15;;;;;;;19.75;15.52;;;;;;;23.45;72.08;97659.22;10328542;28;20489;-56
2023/08/24 20:36:14;;;;;;;19.30;15.93;;;;;;;23.26;74.17;97635.53;10329641;28;20491;-56
2023/08/24 20:41:14;;;;;;;20.25;17.35;;;;;;;23.32;74.89;97676.69;10328867;28;20064;-56
2023/08/24 20:46:13;;;;;;;21.02;16.98;;;;;;;23.27;75.17;97684.03;10326297;28;20481;-54
2023/08/24 20:51:12;;;;;;;19.63;17.23;;;;;;;23.19;75.64;97674.72;10329602;28;20507;-55
2023/08/24 20:56:11;;;;;;;20.05;16.38;;;;;;;23.06;76.30;97660.41;10326175;28;20109;-56
2023/08/24 21:01:10;;;;;;;20.52;17.02;;;;;;;22.97;76.24;97666.19;10327394;28;20117;-56
2023/08/24 21:06:09;;;;;;;19.60;15.82;;;;;;;23.08;76.25;97678.88;10328416;28;20021;-55
2023/08/24 21:11:08;;;;;;;22.27;16.98;;;;;;;23.11;76.12;97668.94;10328234;28;20515;-54
2023/08/24 21:16:07;;;;;;;18.90;16.65;;;;;;;23.11;76.21;97660.16;10329886;28;20029;-54
2023/08/24 21:21:06;;;;;;;19.85;17.23;;;;;;;22.98;76.72;97658.16;10326003;28;20140;-54
2023/08/24 21:26:05;;;;;;;20.63;17.00;;;;;;;22.88;76.91;97658.72;10327416;28;20038;-54
2023/08/24 21:31:04;;;;;;;20.45;16.35;;;;;;;22.83;77.02;97655.47;10327013;28;20024;-54
2023/08/24 21:36:04;;;;;;;20.73;16.75;;;;;;;22.77;76.54;97659.31;10328780;28;20060;-55
2023/08/24 21:41:03;;;;;;;17.05;14.90;;;;;;;22.64;76.97;97659.03;10326585;28;20208;-55
2023/08/24 21:46:02;;;;;;;17.75;15.60;;;;;;;22.50;78.00;97670.31;10327421;28;20072;-55
2023/08/24 21:51:01;;;;;;;20.70;15.70;;;;;;;22.36;78.47;97681.56;10325898;28;20053;-55
2023/08/24 21:56:00;;;;;;;18.52;16.60;;;;;;;22.07;80.18;97674.25;10326685;28;20517;-55
2023/08/24 22:01:02;;;;;;;22.73;17.35;;;;;;;21.91;81.12;97674.94;10325976;28;20858;-55
2023/08/24 22:06:02;;;;;;;20.45;16.58;;;;;;;21.86;80.92;97671.66;10325828;28;20067;-55
2023/08/24 22:11:01;;;;;;;19.33;16.25;;;;;;;21.64;80.70;97639.28;10322909;28;20116;-55
2023/08/24 22:16:00;;;;;;;18.50;16.23;;;;;;;21.84;80.23;97670.03;10323248;28;20041;-55
2023/08/24 22:20:59;;;;;;;20.85;16.83;;;;;;;21.88;80.15;97661.88;10322634;28;20121;-55
2023/08/24 22:25:58;;;;;;;19.80;15.77;;;;;;;21.01;80.14;97521.69;10323821;28;20063;-55
2023/08/24 22:30:57;;;;;;;21.88;16.88;;;;;;;21.83;80.20;97650.69;10324827;28;20022;-55
2023/08/24 22:35:56;;;;;;;22.20;16.77;;;;;;;21.82;80.44;97643.69;10326004;28;20079;-55
2023/08/24 22:40:55;;;;;;;19.45;16.52;;;;;;;21.77;80.91;97645.69;10324237;28;20795;-55